Time;durP1;ratioP1;P1;durP2;ratioP2;P2;SDS_P1;SDS_P2;PMS_P1;PMS_P2;Temp;Humidity;BMP_temperature;BMP_pressure;BME280_temperature;BME280_humidity;BME280_pressure;Samples;Min_cycle;Max_cycle;Signal;HPM_P1;HPM_P2
2021/10/11 00:02:21;;;;;;;;;;;14.70;99.90;;;;;;5073856;28;845;-49
2021/10/11 00:04:46;;;;;;;;;;;14.70;99.90;;;;;;5058439;28;852;-49
2021/10/11 00:07:12;;;;;;;;;;;14.70;99.90;;;;;;5056860;28;817;-49
2021/10/11 00:09:38;;;;;;;;;;;14.70;99.90;;;;;;5056691;28;924;-50
2021/10/11 00:12:04;;;;;;;;;;;14.70;99.90;;;;;;5056645;28;749;-49
2021/10/11 00:14:30;;;;;;;;;;;14.70;99.90;;;;;;5056611;28;884;-49
2021/10/11 00:16:55;;;;;;;;;;;14.70;99.90;;;;;;5056139;28;1906;-49
2021/10/11 00:19:21;;;;;;;;;;;14.70;99.90;;;;;;5062003;28;777;-49
2021/10/11 00:21:46;;;;;;;;;;;14.70;99.90;;;;;;5063112;28;801;-49
2021/10/11 00:24:12;;;;;;;;;;;14.60;99.90;;;;;;5063168;28;883;-50
2021/10/11 00:26:39;;;;;;;;;;;14.60;99.90;;;;;;5063104;28;788;-49
2021/10/11 00:29:05;;;;;;;;;;;14.60;99.90;;;;;;5063378;28;819;-49
2021/10/11 00:31:31;;;;;;;;;;;14.60;99.90;;;;;;5062972;28;851;-49
2021/10/11 00:33:56;;;;;;;;;;;14.60;99.90;;;;;;5062431;28;817;-49
2021/10/11 00:36:23;;;;;;;;;;;14.60;99.90;;;;;;5062572;28;1957;-49
2021/10/11 00:38:48;;;;;;;;;;;14.60;99.90;;;;;;5063048;28;770;-49
2021/10/11 00:41:14;;;;;;;;;;;14.60;99.90;;;;;;5063262;28;891;-49
2021/10/11 00:43:41;;;;;;;;;;;14.60;99.90;;;;;;5063175;28;779;-49
2021/10/11 00:46:08;;;;;;;;;;;14.60;99.90;;;;;;5076985;28;1234;-49
2021/10/11 00:48:35;;;;;;;;;;;14.60;99.90;;;;;;5062804;28;828;-49
2021/10/11 00:51:03;;;;;;;;;;;14.60;99.90;;;;;;5062943;28;792;-49
2021/10/11 00:53:28;;;;;;;;;;;14.60;99.90;;;;;;5062696;28;872;-50
2021/10/11 00:55:54;;;;;;;;;;;14.60;99.90;;;;;;5062720;28;1898;-49
2021/10/11 00:58:21;;;;;;;;;;;14.60;99.90;;;;;;5074447;28;1210;-49
2021/10/11 01:00:48;;;;;;;;;;;14.60;99.90;;;;;;5062983;28;790;-49
2021/10/11 01:03:13;;;;;;;;;;;14.60;99.90;;;;;;5062681;28;889;-49
2021/10/11 01:05:39;;;;;;;;;;;14.60;99.90;;;;;;5063124;28;774;-49
2021/10/11 01:08:04;;;;;;;;;;;14.60;99.90;;;;;;5062728;28;928;-49
2021/10/11 01:10:30;;;;;;;;;;;14.60;99.90;;;;;;5063032;28;762;-49
2021/10/11 01:12:57;;;;;;;;;;;14.60;99.90;;;;;;5062755;28;848;-49
2021/10/11 01:15:24;;;;;;;;;;;14.60;99.90;;;;;;5062763;28;1906;-49
2021/10/11 01:17:50;;;;;;;;;;;14.60;99.90;;;;;;5062577;28;741;-49
2021/10/11 01:20:16;;;;;;;;;;;14.60;99.90;;;;;;5062690;28;747;-49
2021/10/11 01:22:43;;;;;;;;;;;14.60;99.90;;;;;;5062646;28;928;-49
2021/10/11 01:25:10;;;;;;;;;;;14.60;99.90;;;;;;5062640;28;889;-49
2021/10/11 01:27:36;;;;;;;;;;;14.60;99.90;;;;;;5062488;28;864;-49
2021/10/11 01:30:02;;;;;;;;;;;14.60;99.90;;;;;;5060292;28;860;-49
2021/10/11 01:32:28;;;;;;;;;;;14.60;99.90;;;;;;5059168;28;838;-49
2021/10/11 01:34:55;;;;;;;;;;;14.60;99.90;;;;;;5059400;28;868;-49
2021/10/11 01:37:20;;;;;;;;;;;14.50;99.90;;;;;;5059271;28;1902;-49
2021/10/11 01:39:46;;;;;;;;;;;14.50;99.90;;;;;;5059461;28;866;-49
2021/10/11 01:42:11;;;;;;;;;;;14.50;99.90;;;;;;5059454;28;825;-49
2021/10/11 01:44:38;;;;;;;;;;;14.50;99.90;;;;;;5059169;28;806;-49
2021/10/11 01:47:03;;;;;;;;;;;14.50;99.90;;;;;;5058974;28;859;-49
2021/10/11 01:49:29;;;;;;;;;;;14.50;99.90;;;;;;5059158;28;758;-49
2021/10/11 01:51:56;;;;;;;;;;;14.50;99.90;;;;;;5058898;28;1001;-49
2021/10/11 01:54:22;;;;;;;;;;;14.50;99.90;;;;;;5058930;28;858;-49
2021/10/11 01:56:48;;;;;;;;;;;14.50;99.90;;;;;;5058868;28;1907;-49
2021/10/11 01:59:13;;;;;;;;;;;14.50;99.90;;;;;;5058820;28;1337;-49
2021/10/11 02:01:39;;;;;;;;;;;14.50;99.90;;;;;;5058725;28;924;-49
2021/10/11 02:04:04;;;;;;;;;;;14.50;99.90;;;;;;5058794;28;1188;-49
2021/10/11 02:06:30;;;;;;;;;;;14.50;99.90;;;;;;5058783;28;924;-49
2021/10/11 02:08:57;;;;;;;;;;;14.50;99.90;;;;;;5058727;28;881;-49
2021/10/11 02:11:24;;;;;;;;;;;14.50;99.90;;;;;;5060058;28;837;-49
2021/10/11 02:13:49;;;;;;;;;;;14.50;99.90;;;;;;5049487;28;1151;-49
2021/10/11 02:16:15;;;;;;;;;;;14.50;99.90;;;;;;5058414;28;1910;-49
2021/10/11 02:18:40;;;;;;;;;;;14.50;99.90;;;;;;5058597;28;993;-49
2021/10/11 02:21:06;;;;;;;;;;;14.50;99.90;;;;;;5058758;28;807;-49
2021/10/11 02:23:31;;;;;;;;;;;14.50;99.90;;;;;;5058566;28;1071;-49
2021/10/11 02:25:58;;;;;;;;;;;14.50;99.90;;;;;;5058431;28;721;-49
2021/10/11 02:28:25;;;;;;;;;;;14.50;99.90;;;;;;5058347;28;838;-49
2021/10/11 02:30:51;;;;;;;;;;;14.50;99.90;;;;;;5058455;28;943;-49
2021/10/11 02:33:16;;;;;;;;;;;14.50;99.90;;;;;;5058085;28;955;-49
2021/10/11 02:35:42;;;;;;;;;;;14.50;99.90;;;;;;5053091;28;1962;-49
2021/10/11 02:38:07;;;;;;;;;;;14.50;99.90;;;;;;5058150;28;940;-49
2021/10/11 02:40:35;;;;;;;;;;;14.50;99.90;;;;;;5058115;28;916;-50
2021/10/11 02:43:01;;;;;;;;;;;14.50;99.90;;;;;;5057032;28;1163;-49
2021/10/11 02:45:27;;;;;;;;;;;14.50;99.90;;;;;;5058248;28;817;-49
2021/10/11 02:47:54;;;;;;;;;;;14.50;99.90;;;;;;5057762;28;895;-49
2021/10/11 02:50:20;;;;;;;;;;;14.50;99.90;;;;;;5057233;28;873;-49
2021/10/11 02:52:46;;;;;;;;;;;14.50;99.90;;;;;;5057918;28;844;-49
2021/10/11 02:55:12;;;;;;;;;;;14.50;99.90;;;;;;5057841;28;851;-49
2021/10/11 02:57:37;;;;;;;;;;;14.50;99.90;;;;;;5057675;28;1894;-49
2021/10/11 03:00:04;;;;;;;;;;;14.40;99.90;;;;;;5057547;28;1445;-49
2021/10/11 03:02:30;;;;;;;;;;;14.50;99.90;;;;;;5057483;28;837;-49
2021/10/11 03:04:57;;;;;;;;;;;14.50;99.90;;;;;;5057690;28;909;-49
2021/10/11 03:07:24;;;;;;;;;;;14.50;99.90;;;;;;5057327;28;840;-49
2021/10/11 03:09:49;;;;;;;;;;;14.50;99.90;;;;;;5057266;28;761;-49
2021/10/11 03:12:15;;;;;;;;;;;14.50;99.90;;;;;;5057509;28;813;-49
2021/10/11 03:14:41;;;;;;;;;;;14.50;99.90;;;;;;5057569;28;812;-50
2021/10/11 03:17:06;;;;;;;;;;;14.50;99.90;;;;;;5057472;28;1910;-49
2021/10/11 03:19:33;;;;;;;;;;;14.40;99.90;;;;;;5057276;28;924;-49
2021/10/11 03:22:00;;;;;;;;;;;14.50;99.90;;;;;;5057689;28;1252;-49
2021/10/11 03:24:27;;;;;;;;;;;14.40;99.90;;;;;;5057219;28;860;-49
2021/10/11 03:26:53;;;;;;;;;;;14.50;99.90;;;;;;5057293;28;960;-49
2021/10/11 03:29:19;;;;;;;;;;;14.50;99.90;;;;;;5039577;28;1218;-50
2021/10/11 03:31:44;;;;;;;;;;;14.40;99.90;;;;;;5057055;28;818;-49
2021/10/11 03:34:12;;;;;;;;;;;14.50;99.90;;;;;;5057090;28;933;-49
2021/10/11 03:36:38;;;;;;;;;;;14.50;99.90;;;;;;5057095;28;1894;-49
2021/10/11 03:39:05;;;;;;;;;;;14.40;99.90;;;;;;5057341;28;830;-49
2021/10/11 03:41:30;;;;;;;;;;;14.50;99.90;;;;;;5057146;28;769;-49
2021/10/11 03:43:57;;;;;;;;;;;14.40;99.90;;;;;;5057232;28;881;-49
2021/10/11 03:46:23;;;;;;;;;;;14.40;99.90;;;;;;5056916;28;746;-49
2021/10/11 03:48:48;;;;;;;;;;;14.40;99.90;;;;;;5057009;28;846;-49
2021/10/11 03:51:14;;;;;;;;;;;14.50;99.90;;;;;;5056869;28;761;-49
2021/10/11 03:53:39;;;;;;;;;;;14.40;99.90;;;;;;5051965;28;822;-49
2021/10/11 03:56:05;;;;;;;;;;;14.40;99.90;;;;;;5056861;28;1970;-49
2021/10/11 03:58:30;;;;;;;;;;;14.40;99.90;;;;;;5056546;28;1191;-49
2021/10/11 04:00:57;;;;;;;;;;;14.40;99.90;;;;;;5056833;28;799;-49
2021/10/11 04:03:22;;;;;;;;;;;14.40;99.90;;;;;;5056879;28;771;-49
2021/10/11 04:05:48;;;;;;;;;;;14.40;99.90;;;;;;5056671;28;855;-49
2021/10/11 04:08:16;;;;;;;;;;;14.40;99.90;;;;;;5056706;28;915;-49
2021/10/11 04:13:19;;;;;;;;;;;14.40;99.90;;;;;;5056496;28;738;-49
2021/10/11 04:15:45;;;;;;;;;;;14.40;99.90;;;;;;5056618;28;1902;-49
2021/10/11 04:18:10;;;;;;;;;;;14.50;99.90;;;;;;5056436;28;788;-50
2021/10/11 04:20:36;;;;;;;;;;;14.50;99.90;;;;;;5056556;28;860;-50
2021/10/11 04:23:03;;;;;;;;;;;14.40;99.90;;;;;;5056535;28;1006;-49
2021/10/11 04:25:28;;;;;;;;;;;14.40;99.90;;;;;;5056359;28;944;-50
2021/10/11 04:27:53;;;;;;;;;;;14.40;99.90;;;;;;5056795;28;837;-49
2021/10/11 04:30:19;;;;;;;;;;;14.40;99.90;;;;;;5074821;28;982;-50
2021/10/11 04:32:44;;;;;;;;;;;14.40;99.90;;;;;;5074498;28;821;-49
2021/10/11 04:35:10;;;;;;;;;;;14.40;99.90;;;;;;5068650;28;870;-49
2021/10/11 04:37:40;;;;;;;;;;;14.40;99.90;;;;;;5052576;28;1902;-49
2021/10/11 04:40:07;;;;;;;;;;;14.40;99.90;;;;;;5052800;28;930;-49
2021/10/11 04:42:34;;;;;;;;;;;14.40;99.90;;;;;;5058292;28;1254;-50
2021/10/11 04:45:00;;;;;;;;;;;14.40;99.90;;;;;;5074814;28;939;-49
2021/10/11 04:47:25;;;;;;;;;;;14.40;99.90;;;;;;5074711;28;892;-49
2021/10/11 04:49:51;;;;;;;;;;;14.40;99.90;;;;;;5074435;28;951;-49
2021/10/11 04:52:16;;;;;;;;;;;14.40;99.90;;;;;;5074588;28;834;-49
2021/10/11 04:54:42;;;;;;;;;;;14.40;99.90;;;;;;5074506;28;958;-49
2021/10/11 04:57:08;;;;;;;;;;;14.40;99.90;;;;;;5074809;28;1961;-49
2021/10/11 04:59:35;;;;;;;;;;;14.40;99.90;;;;;;5058468;28;1216;-49
2021/10/11 05:02:01;;;;;;;;;;;14.40;99.90;;;;;;5056228;28;853;-49
2021/10/11 05:04:26;;;;;;;;;;;14.40;99.90;;;;;;5055910;28;951;-49
2021/10/11 05:06:51;;;;;;;;;;;14.50;99.90;;;;;;5060028;28;770;-49
2021/10/11 05:09:17;;;;;;;;;;;14.50;99.90;;;;;;5059869;28;843;-49
2021/10/11 05:11:42;;;;;;;;;;;14.50;99.90;;;;;;5059849;28;852;-49
2021/10/11 05:14:09;;;;;;;;;;;14.60;99.90;;;;;;5060061;28;842;-49
2021/10/11 05:16:37;;;;;;;;;;;14.60;99.90;;;;;;5059547;28;1969;-49
2021/10/11 05:19:04;;;;;;;;;;;14.60;99.90;;;;;;5059854;28;769;-49
2021/10/11 05:21:31;;;;;;;;;;;14.60;99.90;;;;;;5059899;28;760;-49
2021/10/11 05:23:57;;;;;;;;;;;14.60;99.90;;;;;;5070266;28;824;-49
2021/10/11 05:26:23;;;;;;;;;;;14.70;99.90;;;;;;5061332;28;785;-49
2021/10/11 05:28:48;;;;;;;;;;;14.70;99.90;;;;;;5059423;28;959;-49
2021/10/11 05:31:14;;;;;;;;;;;14.70;99.90;;;;;;5059392;28;874;-49
2021/10/11 05:33:41;;;;;;;;;;;14.70;99.90;;;;;;5059490;28;895;-49
2021/10/11 05:36:08;;;;;;;;;;;14.70;99.90;;;;;;5058975;28;1898;-49
2021/10/11 05:38:35;;;;;;;;;;;14.70;99.90;;;;;;5059046;28;816;-50
2021/10/11 05:41:00;;;;;;;;;;;14.80;99.90;;;;;;5059295;28;852;-49
2021/10/11 05:43:26;;;;;;;;;;;14.80;99.90;;;;;;5059569;28;733;-49
2021/10/11 05:45:51;;;;;;;;;;;14.80;99.90;;;;;;5059249;28;1374;-49
2021/10/11 05:48:17;;;;;;;;;;;14.80;99.90;;;;;;5070407;28;790;-49
2021/10/11 05:50:42;;;;;;;;;;;14.80;99.90;;;;;;5059260;28;855;-49
2021/10/11 05:53:09;;;;;;;;;;;14.80;99.90;;;;;;5059158;28;826;-49
2021/10/11 05:55:35;;;;;;;;;;;14.80;99.90;;;;;;5058862;28;1902;-49
2021/10/11 05:58:00;;;;;;;;;;;14.80;99.90;;;;;;5060412;28;1073;-49
2021/10/11 06:00:26;;;;;;;;;;;14.80;99.90;;;;;;5077397;28;903;-49
2021/10/11 06:02:52;;;;;;;;;;;14.80;99.90;;;;;;5077385;28;817;-49
2021/10/11 06:05:18;;;;;;;;;;;14.80;99.90;;;;;;5077298;28;844;-49
2021/10/11 06:07:43;;;;;;;;;;;14.80;99.90;;;;;;5077167;28;841;-49
2021/10/11 06:10:09;;;;;;;;;;;14.80;99.90;;;;;;5077088;28;801;-49
2021/10/11 06:12:35;;;;;;;;;;;14.80;99.90;;;;;;5077154;28;812;-49
2021/10/11 06:15:01;;;;;;;;;;;14.80;99.90;;;;;;5076959;28;841;-49
2021/10/11 06:17:26;;;;;;;;;;;14.80;99.90;;;;;;5076708;28;1910;-49
2021/10/11 06:19:52;;;;;;;;;;;14.80;99.90;;;;;;5077011;28;861;-49
2021/10/11 06:22:18;;;;;;;;;;;14.80;99.90;;;;;;5076898;28;1164;-49
2021/10/11 06:24:44;;;;;;;;;;;14.80;99.90;;;;;;5076837;28;902;-49
2021/10/11 06:27:09;;;;;;;;;;;14.80;99.90;;;;;;5076780;28;816;-49
2021/10/11 06:29:35;;;;;;;;;;;14.80;99.90;;;;;;5060626;28;861;-49
2021/10/11 06:32:00;;;;;;;;;;;14.80;99.90;;;;;;5058201;28;816;-49
2021/10/11 06:34:26;;;;;;;;;;;14.80;99.90;;;;;;5058138;28;770;-49
2021/10/11 06:36:51;;;;;;;;;;;14.80;99.90;;;;;;5058413;28;1961;-49
2021/10/11 06:39:17;;;;;;;;;;;14.80;99.90;;;;;;5058047;28;979;-49
2021/10/11 06:41:42;;;;;;;;;;;14.80;99.90;;;;;;5058102;28;856;-49
2021/10/11 06:44:09;;;;;;;;;;;14.80;99.90;;;;;;5058375;28;806;-49
2021/10/11 06:46:35;;;;;;;;;;;14.80;99.90;;;;;;5058164;28;818;-49
2021/10/11 06:49:00;;;;;;;;;;;14.80;99.90;;;;;;5057957;28;1104;-49
2021/10/11 06:51:26;;;;;;;;;;;14.80;99.90;;;;;;5058191;28;1458;-49
2021/10/11 06:53:51;;;;;;;;;;;14.80;99.90;;;;;;5057849;28;1002;-49
2021/10/11 06:56:17;;;;;;;;;;;14.80;99.90;;;;;;5057722;28;1898;-49
2021/10/11 06:58:42;;;;;;;;;;;14.80;99.90;;;;;;5057665;28;1592;-49
2021/10/11 07:01:08;;;;;;;;;;;14.80;99.90;;;;;;5057599;28;896;-49
2021/10/11 07:03:36;;;;;;;;;;;14.80;99.90;;;;;;5057606;28;853;-49
2021/10/11 07:06:04;;;;;;;;;;;14.80;99.90;;;;;;5057675;28;813;-49
2021/10/11 07:08:30;;;;;;;;;;;14.80;99.90;;;;;;5057547;28;1143;-49
2021/10/11 07:10:56;;;;;;;;;;;14.80;99.90;;;;;;5057848;28;952;-49
2021/10/11 07:13:23;;;;;;;;;;;14.80;99.90;;;;;;5057506;28;802;-50
2021/10/11 07:15:50;;;;;;;;;;;14.80;99.90;;;;;;5057268;28;1919;-49
2021/10/11 07:18:15;;;;;;;;;;;14.80;99.90;;;;;;5057315;28;773;-49
2021/10/11 07:20:43;;;;;;;;;;;14.80;99.90;;;;;;5057394;28;862;-49
2021/10/11 07:23:09;;;;;;;;;;;14.80;99.90;;;;;;5057393;28;828;-49
2021/10/11 07:25:34;;;;;;;;;;;14.90;99.90;;;;;;5057249;28;837;-49
2021/10/11 07:28:00;;;;;;;;;;;14.90;99.90;;;;;;5056543;28;781;-49
2021/10/11 07:30:27;;;;;;;;;;;14.90;99.90;;;;;;5057277;28;825;-49
2021/10/11 07:32:54;;;;;;;;;;;15.00;99.90;;;;;;5057016;28;881;-49
2021/10/11 07:35:20;;;;;;;;;;;15.00;99.90;;;;;;5039451;28;781;-49
2021/10/11 07:37:47;;;;;;;;;;;15.00;99.90;;;;;;5057011;28;1898;-49
2021/10/11 07:40:12;;;;;;;;;;;15.00;99.90;;;;;;5057227;28;751;-49
2021/10/11 07:42:38;;;;;;;;;;;15.00;99.90;;;;;;5056958;28;855;-50
2021/10/11 07:45:03;;;;;;;;;;;15.00;99.90;;;;;;5057035;28;824;-49
2021/10/11 07:47:29;;;;;;;;;;;15.00;99.90;;;;;;5056831;28;794;-49
2021/10/11 07:49:56;;;;;;;;;;;15.00;99.90;;;;;;5057040;28;986;-49
2021/10/11 07:52:22;;;;;;;;;;;15.00;99.90;;;;;;5056935;28;818;-43
2021/10/11 07:54:48;;;;;;;;;;;15.00;99.90;;;;;;5056886;28;833;-43
2021/10/11 07:57:13;;;;;;;;;;;15.00;99.90;;;;;;5056634;28;1955;-43
2021/10/11 07:59:39;;;;;;;;;;;15.00;99.90;;;;;;5058342;28;1102;-43
2021/10/11 08:02:04;;;;;;;;;;;15.00;99.90;;;;;;5056343;28;821;-43
2021/10/11 08:04:30;;;;;;;;;;;15.00;99.90;;;;;;5056599;28;852;-43
2021/10/11 08:06:57;;;;;;;;;;;15.00;99.90;;;;;;5056354;28;838;-43
2021/10/11 08:09:23;;;;;;;;;;;15.00;99.90;;;;;;5056155;28;935;-43
2021/10/11 08:11:49;;;;;;;;;;;15.00;99.90;;;;;;5022108;28;1035;-43
2021/10/11 08:14:14;;;;;;;;;;;15.00;99.90;;;;;;5056846;28;832;-42
2021/10/11 08:16:40;;;;;;;;;;;15.00;99.90;;;;;;5056428;28;1966;-43
2021/10/11 08:19:10;;;;;;;;;;;15.00;99.90;;;;;;5056712;28;951;-43
2021/10/11 08:21:35;;;;;;;;;;;15.00;99.90;;;;;;5038986;28;869;-43
2021/10/11 08:24:01;;;;;;;;;;;15.00;99.90;;;;;;5056536;28;738;-43
2021/10/11 08:26:27;;;;;;;;;;;15.00;99.90;;;;;;5056501;28;855;-43
2021/10/11 08:28:54;;;;;;;;;;;15.00;99.90;;;;;;5056689;28;761;-43
2021/10/11 08:31:20;;;;;;;;;;;15.00;99.90;;;;;;5056297;28;796;-43
2021/10/11 08:33:45;;;;;;;;;;;15.00;99.90;;;;;;5056358;28;989;-43
2021/10/11 08:36:12;;;;;;;;;;;15.00;99.90;;;;;;5056328;28;1975;-43
2021/10/11 08:38:37;;;;;;;;;;;15.00;99.90;;;;;;5056661;28;868;-43
2021/10/11 08:41:04;;;;;;;;;;;15.00;99.90;;;;;;5060547;28;785;-49
2021/10/11 08:43:30;;;;;;;;;;;15.00;99.90;;;;;;5060428;28;852;-50
2021/10/11 08:45:57;;;;;;;;;;;15.00;99.90;;;;;;5060173;28;766;-49
2021/10/11 08:48:24;;;;;;;;;;;15.00;99.90;;;;;;5060326;28;820;-50
2021/10/11 08:50:49;;;;;;;;;;;15.10;99.90;;;;;;5060118;28;895;-49
2021/10/11 08:53:15;;;;;;;;;;;15.10;99.90;;;;;;5060299;28;801;-50
2021/10/11 08:55:41;;;;;;;;;;;15.10;99.90;;;;;;5060049;28;1902;-50
2021/10/11 08:58:08;;;;;;;;;;;15.10;99.90;;;;;;5059670;28;1190;-49
2021/10/11 09:00:34;;;;;;;;;;;15.10;99.90;;;;;;5059757;28;1227;-49
2021/10/11 09:03:01;;;;;;;;;;;15.10;99.90;;;;;;5059940;28;1177;-49
2021/10/11 09:05:32;;;;;;;;;;;15.10;99.90;;;;;;5056004;28;836;-49
2021/10/11 09:08:02;;;;;;;;;;;15.20;99.90;;;;;;5056844;28;805;-43
2021/10/11 09:10:30;;;;;;;;;;;15.20;99.90;;;;;;5060117;28;826;-43
2021/10/11 09:12:57;;;;;;;;;;;15.20;99.90;;;;;;5059976;28;843;-43
2021/10/11 09:15:31;;;;;;;;;;;15.20;99.90;;;;;;5059777;28;832;-43
2021/10/11 09:18:03;;;;;;;;;;;15.20;99.90;;;;;;5059503;28;1894;-43
2021/10/11 09:20:29;;;;;;;;;;;15.20;99.90;;;;;;5059802;28;837;-43
2021/10/11 09:23:00;;;;;;;;;;;15.30;99.90;;;;;;5059607;28;868;-43
2021/10/11 09:25:35;;;;;;;;;;;15.30;99.90;;;;;;5026040;28;1029;-43
2021/10/11 09:28:01;;;;;;;;;;;15.30;99.90;;;;;;5073817;28;798;-43
2021/10/11 09:30:48;;;;;;;;;;;15.30;99.90;;;;;;5059892;28;813;-43
2021/10/11 09:33:18;;;;;;;;;;;15.30;99.90;;;;;;5059349;28;831;-49
2021/10/11 09:35:44;;;;;;;;;;;15.30;99.90;;;;;;5059181;28;1910;-49
2021/10/11 09:38:23;;;;;;;;;;;15.30;99.90;;;;;;5059403;28;719;-49
2021/10/11 09:40:51;;;;;;;;;;;15.30;99.90;;;;;;5059390;28;858;-49
2021/10/11 09:43:18;;;;;;;;;;;15.30;99.90;;;;;;5059214;28;813;-49
2021/10/11 09:45:43;;;;;;;;;;;15.30;99.90;;;;;;5056967;28;770;-49
2021/10/11 09:48:09;;;;;;;;;;;15.30;99.90;;;;;;5059100;28;853;-43
2021/10/11 09:50:36;;;;;;;;;;;15.30;99.90;;;;;;5058207;28;927;-43
2021/10/11 09:53:02;;;;;;;;;;;15.30;99.90;;;;;;5059172;28;1152;-43
2021/10/11 09:55:29;;;;;;;;;;;15.30;99.90;;;;;;5059357;28;824;-43
2021/10/11 09:57:56;;;;;;;;;;;15.40;99.90;;;;;;5061581;28;1890;-43
2021/10/11 10:00:22;;;;;;;;;;;15.40;99.90;;;;;;5058681;28;1471;-43
2021/10/11 10:02:47;;;;;;;;;;;15.50;99.90;;;;;;5058736;28;887;-43
2021/10/11 10:05:15;;;;;;;;;;;15.60;99.90;;;;;;5041539;28;780;-43
2021/10/11 10:07:46;;;;;;;;;;;15.60;99.90;;;;;;5058869;28;767;-43
2021/10/11 10:10:12;;;;;;;;;;;15.70;99.90;;;;;;5041619;28;865;-43
2021/10/11 10:12:47;;;;;;;;;;;15.70;99.90;;;;;;5058768;28;856;-43
2021/10/11 10:15:24;;;;;;;;;;;15.70;99.90;;;;;;5058678;28;852;-43
2021/10/11 10:17:58;;;;;;;;;;;15.70;99.90;;;;;;5058369;28;1902;-43
2021/10/11 10:20:23;;;;;;;;;;;15.70;99.90;;;;;;5041001;28;1382;-43
2021/10/11 10:22:50;;;;;;;;;;;15.70;99.90;;;;;;5076863;28;789;-43
2021/10/11 10:25:15;;;;;;;;;;;15.70;99.90;;;;;;5076825;28;998;-43
2021/10/11 10:27:41;;;;;;;;;;;15.80;99.90;;;;;;5075366;28;864;-43
2021/10/11 10:30:14;;;;;;;;;;;15.90;99.90;;;;;;5058299;28;821;-43
2021/10/11 10:32:50;;;;;;;;;;;15.90;99.90;;;;;;5051813;28;732;-43
2021/10/11 10:35:17;;;;;;;;;;;15.90;99.90;;;;;;5076810;28;856;-43
2021/10/11 10:37:43;;;;;;;;;;;15.90;99.90;;;;;;5077150;28;1894;-43
2021/10/11 10:40:12;;;;;;;;;;;16.10;99.90;;;;;;5076750;28;805;-43
2021/10/11 10:42:38;;;;;;;;;;;16.10;99.90;;;;;;5076503;28;718;-43
2021/10/11 10:45:14;;;;;;;;;;;16.10;99.90;;;;;;5076485;28;791;-43
2021/10/11 10:47:41;;;;;;;;;;;16.10;99.90;;;;;;5076254;28;834;-43
2021/10/11 10:50:14;;;;;;;;;;;16.10;99.90;;;;;;5076219;28;805;-43
2021/10/11 10:52:40;;;;;;;;;;;16.10;99.90;;;;;;5076654;28;805;-43
2021/10/11 10:55:07;;;;;;;;;;;16.10;99.90;;;;;;5076608;28;778;-43
2021/10/11 10:57:33;;;;;;;;;;;16.00;99.90;;;;;;5075754;28;1898;-43
2021/10/11 11:00:03;;;;;;;;;;;16.00;99.90;;;;;;5057594;28;1059;-43
2021/10/11 11:02:30;;;;;;;;;;;16.00;99.90;;;;;;5056813;28;777;-43
2021/10/11 11:04:58;;;;;;;;;;;16.00;99.90;;;;;;5065931;28;1190;-43
2021/10/11 11:07:30;;;;;;;;;;;16.00;99.90;;;;;;5076294;28;852;-43
2021/10/11 11:09:56;;;;;;;;;;;16.00;99.90;;;;;;5058552;28;1635;-43
2021/10/11 11:12:32;;;;;;;;;;;16.00;99.90;;;;;;5076216;28;854;-43
2021/10/11 11:14:58;;;;;;;;;;;16.00;99.90;;;;;;5058362;28;1367;-43
2021/10/11 11:17:33;;;;;;;;;;;16.00;99.90;;;;;;5075795;28;1965;-43
2021/10/11 11:19:59;;;;;;;;;;;16.00;99.90;;;;;;5058093;28;1347;-43
2021/10/11 11:22:31;;;;;;;;;;;16.10;99.90;;;;;;5075784;28;890;-43
2021/10/11 11:25:01;;;;;;;;;;;16.10;99.90;;;;;;5046773;28;1478;-43
2021/10/11 11:27:27;;;;;;;;;;;16.00;99.90;;;;;;5057279;28;817;-43
2021/10/11 11:29:56;;;;;;;;;;;16.00;99.90;;;;;;5041820;28;809;-43
2021/10/11 11:32:22;;;;;;;;;;;16.00;99.90;;;;;;5070107;28;1382;-49
2021/10/11 11:34:47;;;;;;;;;;;16.00;99.90;;;;;;5057205;28;825;-43
2021/10/11 11:37:13;;;;;;;;;;;16.00;99.90;;;;;;5057071;28;1905;-43
2021/10/11 11:39:39;;;;;;;;;;;16.00;99.90;;;;;;5057093;28;833;-43
2021/10/11 11:42:07;;;;;;;;;;;16.00;99.90;;;;;;5057204;28;756;-43
2021/10/11 11:44:34;;;;;;;;;;;16.00;99.90;;;;;;5057104;28;801;-49
2021/10/11 11:47:18;;;;;;;;;;;16.00;99.90;;;;;;5056887;28;741;-50
2021/10/11 11:49:43;;;;;;;;;;;16.00;99.90;;;;;;5057141;28;832;-49
2021/10/11 11:52:11;;;;;;;;;;;16.00;99.90;;;;;;5056851;28;932;-51
2021/10/11 11:54:57;;;;;;;;;;;16.00;99.90;;;;;;5056821;28;758;-50
2021/10/11 11:57:23;;;;;;;;;;;16.00;99.90;;;;;;5056857;28;1906;-51
2021/10/11 11:59:49;;;;;;;;;;;16.00;99.90;;;;;;5056371;28;1146;-44
2021/10/11 12:02:16;;;;;;;;;;;16.00;99.90;;;;;;5056601;28;809;-50
2021/10/11 12:04:44;;;;;;;;;;;16.00;99.90;;;;;;5056551;28;841;-44
2021/10/11 12:07:11;;;;;;;;;;;16.10;99.90;;;;;;5056727;28;794;-43
2021/10/11 12:09:38;;;;;;;;;;;16.00;99.90;;;;;;5056686;28;935;-49
2021/10/11 12:12:06;;;;;;;;;;;16.00;99.90;;;;;;5056650;28;1102;-50
2021/10/11 12:14:33;;;;;;;;;;;16.00;99.90;;;;;;5056553;28;820;-50
2021/10/11 12:17:05;;;;;;;;;;;16.00;99.90;;;;;;5056671;28;1890;-50
2021/10/11 12:19:31;;;;;;;;;;;16.10;99.90;;;;;;5056641;28;824;-50
2021/10/11 12:21:57;;;;;;;;;;;16.10;99.90;;;;;;5056588;28;876;-44
2021/10/11 12:24:25;;;;;;;;;;;16.20;99.90;;;;;;5056682;28;1006;-44
2021/10/11 12:26:55;;;;;;;;;;;16.20;99.90;;;;;;5056299;28;820;-44
2021/10/11 12:29:21;;;;;;;;;;;16.20;99.90;;;;;;5056318;28;836;-44
2021/10/11 12:32:01;;;;;;;;;;;16.30;99.90;;;;;;5056296;28;837;-43
2021/10/11 12:34:36;;;;;;;;;;;16.30;99.90;;;;;;5056340;28;824;-43
2021/10/11 12:37:03;;;;;;;;;;;16.30;99.90;;;;;;5057036;28;1906;-49
2021/10/11 12:39:30;;;;;;;;;;;16.20;99.90;;;;;;5056571;28;846;-50
2021/10/11 12:41:56;;;;;;;;;;;16.20;99.90;;;;;;5068649;28;829;-50
2021/10/11 12:44:35;;;;;;;;;;;16.30;99.90;;;;;;5074837;28;846;-50
2021/10/11 12:47:01;;;;;;;;;;;16.20;99.90;;;;;;5074641;28;841;-50
2021/10/11 12:49:31;;;;;;;;;;;16.20;99.90;;;;;;5074550;28;757;-50
2021/10/11 12:51:56;;;;;;;;;;;16.20;99.90;;;;;;5074640;28;921;-44
2021/10/11 12:54:27;;;;;;;;;;;16.20;99.90;;;;;;5074715;28;895;-44
2021/10/11 12:56:53;;;;;;;;;;;16.20;99.90;;;;;;5074581;28;1902;-44
2021/10/11 12:59:36;;;;;;;;;;;16.20;99.90;;;;;;5060343;28;1594;-44
2021/10/11 13:02:01;;;;;;;;;;;16.20;99.90;;;;;;5056417;28;805;-44
2021/10/11 13:04:27;;;;;;;;;;;16.30;99.90;;;;;;5055951;28;956;-44
2021/10/11 13:06:54;;;;;;;;;;;16.30;99.90;;;;;;5055072;28;1482;-44
2021/10/11 13:09:21;;;;;;;;;;;16.30;99.90;;;;;;5055709;28;722;-44
2021/10/11 13:11:49;;;;;;;;;;;16.30;99.90;;;;;;5056177;28;1506;-43
2021/10/11 13:14:14;;;;;;;;;;;16.30;99.90;;;;;;5056150;28;864;-44
2021/10/11 13:16:40;;;;;;;;;;;16.30;99.90;;;;;;5056063;28;1965;-44
2021/10/11 13:19:06;;;;;;;;;;;16.30;99.90;;;;;;5056002;28;770;-50
2021/10/11 13:21:32;;;;;;;;;;;16.30;99.90;;;;;;5055833;28;817;-50
2021/10/11 13:23:57;;;;;;;;;;;16.30;99.90;;;;;;5055875;28;1174;-50
2021/10/11 13:26:24;;;;;;;;;;;16.30;99.90;;;;;;5057343;28;872;-44
2021/10/11 14:26:22;;;;;;;;;;;16.00;99.90;;;;;;4957610;29;1140;-44
2021/10/11 14:28:56;;;;;;;;;;;16.00;99.90;;;;;;4933445;29;820;-44
2021/10/11 15:58:56;;;;;;;;;;;15.80;99.90;;;;;;5069215;28;1285;-44
2021/10/11 16:01:31;;;;;;;;;;;15.80;99.90;;;;;;5054628;28;1012;-50
2021/10/11 16:03:58;;;;;;;;;;;15.80;99.90;;;;;;5056785;28;856;-51
2021/10/11 16:06:24;;;;;;;;;;;15.80;99.90;;;;;;5056464;28;1490;-49
2021/10/11 16:08:51;;;;;;;;;;;15.70;99.90;;;;;;5056698;28;841;-49
2021/10/11 16:11:18;;;;;;;;;;;15.80;99.90;;;;;;5056928;28;847;-50
2021/10/11 16:13:43;;;;;;;;;;;15.70;99.90;;;;;;5056588;28;849;-50
2021/10/11 16:16:09;;;;;;;;;;;15.70;99.90;;;;;;5056813;28;1910;-44
2021/10/11 16:18:36;;;;;;;;;;;15.70;99.90;;;;;;5056493;28;1005;-44
2021/10/11 16:21:04;;;;;;;;;;;15.70;99.90;;;;;;5038880;28;813;-44
2021/10/11 16:23:32;;;;;;;;;;;15.70;99.90;;;;;;5056503;28;910;-44
2021/10/11 16:25:59;;;;;;;;;;;15.70;99.90;;;;;;5056700;28;781;-44
2021/10/11 16:28:25;;;;;;;;;;;15.70;99.90;;;;;;5056708;28;846;-44
2021/10/11 16:30:50;;;;;;;;;;;15.70;99.90;;;;;;5056490;28;813;-44
2021/10/11 16:33:16;;;;;;;;;;;15.70;99.90;;;;;;5056521;28;857;-44
2021/10/11 16:35:42;;;;;;;;;;;15.70;99.90;;;;;;5056523;28;816;-49
2021/10/11 16:38:07;;;;;;;;;;;15.70;99.90;;;;;;5056216;28;1902;-50
2021/10/11 16:40:38;;;;;;;;;;;15.60;99.90;;;;;;5056610;28;891;-49
2021/10/11 16:43:05;;;;;;;;;;;15.70;99.90;;;;;;5056315;28;856;-49
2021/10/11 16:45:31;;;;;;;;;;;15.60;99.90;;;;;;5056507;28;887;-51
2021/10/11 16:47:56;;;;;;;;;;;15.60;99.90;;;;;;5056088;28;789;-50
2021/10/11 16:50:22;;;;;;;;;;;15.60;99.90;;;;;;5056283;28;839;-49
2021/10/11 16:52:48;;;;;;;;;;;15.60;99.90;;;;;;5040399;28;1173;-49
2021/10/11 16:55:15;;;;;;;;;;;15.60;99.90;;;;;;5074599;28;776;-44
2021/10/11 16:57:42;;;;;;;;;;;15.60;99.90;;;;;;5073197;28;1962;-45
2021/10/11 17:00:10;;;;;;;;;;;15.60;99.90;;;;;;5057992;28;1366;-44
2021/10/11 17:02:37;;;;;;;;;;;15.60;99.90;;;;;;5060725;28;913;-44
2021/10/11 17:05:04;;;;;;;;;;;15.60;99.90;;;;;;5060205;28;754;-44
2021/10/11 17:07:30;;;;;;;;;;;15.60;99.90;;;;;;5059883;28;793;-49